createdAt,value
2024-01-09T00:01:19.961Z,86.53
2024-01-09T00:03:47.864Z,86.61
2024-01-09T00:06:16.488Z,87.32
2024-01-09T00:08:45.109Z,85.86
2024-01-09T00:11:15.070Z,86.89
2024-01-09T00:13:43.403Z,86.44
2024-01-09T00:16:11.119Z,86.46
2024-01-09T00:18:38.898Z,87.71
2024-01-09T00:21:06.742Z,86.38
2024-01-09T00:23:34.723Z,86.32
2024-01-09T00:26:02.524Z,86.91
2024-01-09T00:28:30.253Z,86.46
2024-01-09T00:30:58.022Z,86.08
2024-01-09T00:33:26.059Z,86.21
2024-01-09T00:35:54.025Z,86.22
2024-01-09T00:38:22.001Z,84.80
2024-01-09T00:40:49.638Z,85.60
2024-01-09T00:43:17.532Z,86.20
2024-01-09T00:45:45.315Z,86.92
2024-01-09T00:48:13.259Z,86.31
2024-01-09T00:50:41.236Z,85.53
2024-01-09T00:53:09.057Z,84.99
2024-01-09T00:55:36.765Z,86.56
2024-01-09T00:58:04.755Z,86.52
2024-01-09T01:00:32.505Z,85.08
2024-01-09T01:03:00.179Z,84.31
2024-01-09T01:05:28.044Z,83.94
2024-01-09T01:07:55.921Z,85.15
2024-01-09T01:10:23.723Z,84.83
2024-01-09T01:12:51.463Z,86.07
2024-01-09T01:15:19.298Z,84.50
2024-01-09T01:17:47.017Z,84.11
2024-01-09T01:20:15.026Z,85.00
2024-01-09T01:22:42.670Z,84.86
2024-01-09T01:25:10.717Z,84.38
2024-01-09T01:27:38.556Z,85.87
2024-01-09T01:30:07.068Z,83.58
2024-01-09T01:32:35.012Z,85.64
2024-01-09T01:35:02.915Z,84.08
2024-01-09T01:37:32.058Z,83.79
2024-01-09T01:39:59.765Z,83.51
2024-01-09T01:42:27.547Z,84.16
2024-01-09T01:44:55.319Z,84.02
2024-01-09T01:47:23.192Z,84.47
2024-01-09T01:49:51.467Z,84.50
2024-01-09T01:52:20.378Z,84.11
2024-01-09T01:54:48.216Z,84.22
2024-01-09T01:57:16.315Z,83.82
2024-01-09T01:59:46.994Z,84.85
2024-01-09T02:02:15.925Z,84.52
2024-01-09T02:04:44.933Z,85.15
2024-01-09T02:07:12.664Z,84.57
2024-01-09T02:09:40.713Z,84.22
2024-01-09T02:12:08.876Z,84.19
2024-01-09T02:14:36.760Z,84.93
2024-01-09T02:17:04.936Z,84.96
2024-01-09T02:19:32.604Z,85.29
2024-01-09T02:22:00.409Z,84.79
2024-01-09T02:24:29.838Z,84.04
2024-01-09T02:27:20.591Z,83.99
2024-01-09T02:29:52.341Z,85.24
2024-01-09T02:32:21.019Z,85.14
2024-01-09T02:34:49.859Z,83.79
2024-01-09T02:37:17.559Z,84.42
2024-01-09T02:39:45.207Z,83.45
2024-01-09T02:42:14.292Z,83.81
2024-01-09T02:44:41.939Z,84.41
2024-01-09T02:47:09.895Z,83.69
2024-01-09T02:49:37.955Z,83.28
2024-01-09T02:52:05.981Z,84.30
2024-01-09T02:54:33.605Z,82.96
2024-01-09T02:57:01.471Z,82.92
2024-01-09T02:59:29.318Z,83.65
2024-01-09T03:01:57.158Z,83.69
2024-01-09T03:04:26.209Z,84.27
2024-01-09T03:06:54.110Z,82.72
2024-01-09T03:09:21.988Z,83.56
2024-01-09T03:11:49.918Z,82.72
2024-01-09T03:14:17.750Z,82.89
2024-01-09T03:16:49.102Z,83.51
2024-01-09T03:19:17.245Z,83.54
2024-01-09T03:21:45.210Z,83.89
2024-01-09T03:24:12.845Z,86.96
2024-01-09T03:26:40.777Z,84.64
2024-01-09T03:29:08.569Z,84.01
2024-01-09T03:31:36.303Z,85.10
2024-01-09T03:34:04.328Z,86.37
2024-01-09T03:36:33.111Z,86.35
2024-01-09T03:39:00.904Z,89.64
2024-01-09T03:41:28.612Z,88.85
2024-01-09T03:43:56.671Z,85.18
2024-01-09T03:46:24.297Z,86.98
2024-01-09T03:49:01.832Z,85.32
2024-01-09T03:51:30.654Z,85.37
2024-01-09T03:53:58.515Z,88.35
2024-01-09T03:56:26.660Z,86.94
2024-01-09T03:58:54.516Z,89.47
2024-01-09T04:01:22.363Z,89.75
2024-01-09T04:03:50.379Z,89.90
2024-01-09T04:06:18.180Z,92.25
2024-01-09T04:08:46.109Z,90.18
2024-01-09T04:11:16.397Z,87.98
2024-01-09T04:13:44.233Z,89.60
2024-01-09T04:16:14.718Z,87.26
2024-01-09T04:18:42.720Z,84.96
2024-01-09T04:21:10.993Z,87.07
2024-01-09T04:23:38.834Z,89.07
2024-01-09T04:26:06.672Z,87.56
2024-01-09T04:28:34.657Z,86.24
2024-01-09T04:31:02.604Z,85.16
2024-01-09T04:33:30.637Z,85.49
2024-01-09T04:35:58.723Z,84.46
2024-01-09T04:38:26.410Z,83.87
2024-01-09T04:40:54.357Z,80.76
2024-01-09T04:43:22.291Z,82.92
2024-01-09T04:45:50.267Z,82.80
2024-01-09T04:48:18.283Z,82.91
2024-01-09T04:50:46.147Z,84.09
2024-01-09T04:53:14.003Z,84.28
2024-01-09T04:55:41.936Z,84.25
2024-01-09T04:58:09.714Z,83.77
2024-01-09T05:00:37.416Z,83.57
2024-01-09T05:03:05.533Z,83.51
2024-01-09T05:05:33.308Z,80.94
2024-01-09T05:08:01.071Z,80.77
2024-01-09T05:10:31.962Z,81.84
2024-01-09T05:12:59.871Z,81.48
2024-01-09T05:15:27.438Z,82.30
2024-01-09T05:17:55.329Z,82.42
2024-01-09T05:20:23.826Z,83.01
2024-01-09T05:22:52.081Z,81.49
2024-01-09T05:25:19.930Z,83.36
2024-01-09T05:27:47.836Z,82.52
2024-01-09T05:30:16.061Z,83.75
2024-01-09T05:32:43.980Z,83.81
2024-01-09T05:35:11.771Z,83.93
2024-01-09T05:37:39.711Z,85.20
2024-01-09T05:40:08.715Z,84.53
2024-01-09T05:42:36.461Z,84.69
2024-01-09T05:45:06.095Z,86.14
2024-01-09T05:47:34.085Z,85.71
2024-01-09T05:50:02.805Z,84.83
2024-01-09T05:52:35.381Z,85.82
2024-01-09T05:55:07.410Z,84.76
2024-01-09T05:57:35.344Z,84.54
2024-01-09T06:00:06.884Z,83.60
2024-01-09T06:02:34.902Z,83.40
2024-01-09T06:05:03.514Z,86.62
2024-01-09T06:07:31.408Z,84.33
2024-01-09T06:09:59.340Z,81.95
2024-01-09T06:12:27.074Z,81.95
2024-01-09T06:14:54.922Z,82.24
2024-01-09T06:17:24.697Z,80.99
2024-01-09T06:19:52.533Z,80.56
2024-01-09T06:22:20.365Z,81.64
2024-01-09T06:24:48.156Z,82.03
2024-01-09T06:27:15.880Z,83.98
2024-01-09T06:29:46.818Z,85.35
2024-01-09T06:32:14.955Z,84.57
2024-01-09T06:34:42.794Z,85.51
2024-01-09T06:37:10.605Z,84.45
2024-01-09T06:39:38.440Z,84.91
2024-01-09T06:42:10.529Z,84.86
2024-01-09T06:44:41.337Z,84.83
2024-01-09T06:47:13.719Z,86.02
2024-01-09T06:49:41.603Z,84.96
2024-01-09T06:52:09.234Z,83.61
2024-01-09T06:54:36.898Z,84.18
2024-01-09T06:57:04.664Z,83.30
2024-01-09T06:59:32.384Z,83.51
2024-01-09T07:02:00.117Z,83.06
2024-01-09T07:04:27.990Z,82.48
2024-01-09T07:06:56.198Z,82.48
2024-01-09T07:09:23.891Z,81.68
2024-01-09T07:11:51.591Z,81.01
2024-01-09T07:14:19.482Z,79.69
2024-01-09T07:16:47.195Z,78.07
2024-01-09T07:19:15.156Z,73.29
2024-01-09T07:21:42.929Z,72.33
2024-01-09T07:24:10.871Z,70.25
2024-01-09T07:26:42.725Z,69.29
2024-01-09T07:29:12.267Z,68.97
2024-01-09T07:31:40.037Z,69.54
2024-01-09T07:34:07.976Z,69.68
2024-01-09T07:36:36.176Z,70.47
2024-01-09T07:39:04.174Z,71.83
2024-01-09T07:41:31.786Z,71.92
2024-01-09T07:44:00.196Z,72.43
2024-01-09T07:46:27.882Z,74.15
2024-01-09T07:48:55.712Z,74.44
2024-01-09T07:51:23.539Z,73.72
2024-01-09T07:53:51.200Z,72.06
2024-01-09T07:56:19.944Z,71.72
2024-01-09T07:58:47.907Z,69.81
2024-01-09T08:01:16.708Z,71.17
2024-01-09T08:03:44.472Z,69.04
2024-01-09T08:06:18.123Z,69.21
2024-01-09T08:08:48.197Z,70.33
2024-01-09T08:11:17.954Z,71.39
2024-01-09T08:13:45.723Z,71.67
2024-01-09T08:16:13.402Z,71.42
2024-01-09T08:18:41.628Z,71.76
2024-01-09T08:21:09.424Z,71.36
2024-01-09T08:23:37.260Z,71.63
2024-01-09T08:26:05.185Z,70.79
2024-01-09T08:28:32.971Z,69.10
2024-01-09T08:31:02.150Z,69.91
2024-01-09T08:33:33.389Z,68.41
2024-01-09T08:36:03.127Z,67.35
2024-01-09T08:38:31.050Z,67.20
2024-01-09T08:40:59.360Z,68.47
2024-01-09T08:43:27.253Z,65.22
2024-01-09T08:45:58.180Z,65.63
2024-01-09T08:48:26.631Z,68.11
2024-01-09T08:50:54.698Z,64.94
2024-01-09T08:53:22.427Z,64.98
2024-01-09T08:55:50.177Z,64.14
2024-01-09T08:58:17.969Z,63.97
2024-01-09T09:00:45.821Z,62.01
2024-01-09T09:03:13.714Z,62.15
2024-01-09T09:05:41.576Z,61.39
2024-01-09T09:08:09.512Z,60.22
2024-01-09T09:10:37.308Z,61.59
2024-01-09T09:13:06.157Z,60.93
2024-01-09T09:15:33.997Z,61.69
2024-01-09T09:18:01.896Z,60.82
2024-01-09T09:20:29.965Z,61.50
2024-01-09T09:22:58.477Z,60.47
2024-01-09T09:25:26.218Z,61.39
2024-01-09T09:27:54.870Z,62.48
2024-01-09T09:30:23.131Z,61.26
2024-01-09T09:32:52.241Z,61.96
2024-01-09T09:35:19.964Z,61.73
2024-01-09T09:37:47.812Z,60.11
2024-01-09T09:40:16.789Z,59.02
2024-01-09T09:42:47.463Z,59.29
2024-01-09T09:45:17.348Z,58.81
2024-01-09T09:47:47.263Z,59.39
2024-01-09T09:50:15.844Z,58.11
2024-01-09T09:52:43.787Z,58.94
2024-01-09T09:55:11.859Z,59.22
2024-01-09T09:57:39.673Z,58.49
2024-01-09T10:00:11.930Z,58.71
2024-01-09T10:02:48.874Z,58.66
2024-01-09T10:05:20.909Z,58.68
2024-01-09T10:07:51.370Z,55.52
2024-01-09T10:10:22.041Z,57.28
2024-01-09T10:12:50.088Z,58.17
2024-01-09T10:15:19.192Z,55.06
2024-01-09T10:17:47.751Z,55.90
2024-01-09T10:20:16.945Z,56.94
2024-01-09T10:22:45.069Z,55.32
2024-01-09T10:25:14.218Z,54.33
2024-01-09T10:27:42.430Z,55.42
2024-01-09T10:30:12.255Z,56.07
2024-01-09T10:32:45.125Z,54.18
2024-01-09T10:35:14.436Z,54.70
2024-01-09T10:37:45.641Z,55.48
2024-01-09T10:40:13.977Z,53.51
2024-01-09T10:42:48.899Z,54.29
2024-01-09T10:45:20.901Z,53.60
2024-01-09T10:47:49.288Z,53.26
2024-01-09T10:50:17.985Z,52.53
2024-01-09T10:52:47.640Z,51.96
2024-01-09T10:55:20.425Z,53.27
2024-01-09T10:57:49.006Z,53.58
2024-01-09T11:00:20.190Z,54.38
2024-01-09T11:02:49.001Z,54.81
2024-01-09T11:05:17.277Z,54.99
2024-01-09T11:07:47.656Z,55.49
2024-01-09T11:10:19.164Z,54.66
2024-01-09T11:12:52.237Z,54.14
2024-01-09T11:15:22.923Z,53.88
2024-01-09T11:18:02.392Z,55.20
2024-01-09T11:20:30.965Z,55.79
2024-01-09T11:22:58.941Z,55.08
2024-01-09T11:25:31.003Z,54.37
2024-01-09T11:28:00.009Z,55.26
2024-01-09T11:30:31.817Z,55.20
2024-01-09T11:33:35.578Z,55.95
2024-01-09T11:36:07.164Z,55.06
2024-01-09T11:38:35.502Z,56.04
2024-01-09T11:41:04.651Z,54.52
2024-01-09T11:44:02.151Z,55.34
2024-01-09T11:46:32.911Z,55.15
2024-01-09T11:49:01.888Z,52.65
2024-01-09T11:51:32.977Z,53.93
2024-01-09T11:54:02.424Z,53.50
2024-01-09T11:56:31.297Z,54.96
2024-01-09T11:59:00.223Z,54.85
2024-01-09T12:01:28.493Z,53.92
2024-01-09T12:03:59.439Z,53.72
2024-01-09T12:06:30.858Z,53.68
2024-01-09T12:08:59.402Z,53.64
2024-01-09T12:11:27.420Z,54.18
2024-01-09T12:14:05.408Z,54.26
2024-01-09T12:16:33.760Z,52.69
2024-01-09T12:19:03.109Z,52.18
2024-01-09T12:21:34.170Z,53.06
2024-01-09T12:26:38.320Z,52.22
2024-01-09T12:29:07.110Z,52.09
2024-01-09T12:31:35.233Z,51.19
2024-01-09T12:34:04.707Z,51.07
2024-01-09T12:36:33.208Z,51.12
2024-01-09T12:39:01.267Z,51.20
2024-01-09T12:41:31.023Z,52.04
2024-01-09T12:44:15.187Z,52.91
2024-01-09T12:46:46.888Z,51.83
2024-01-09T12:49:15.301Z,52.27
2024-01-09T12:51:43.565Z,52.93
2024-01-09T12:54:21.123Z,52.34
2024-01-09T12:56:50.261Z,53.14
2024-01-09T12:59:19.439Z,53.26
2024-01-09T13:01:47.074Z,53.73
2024-01-09T13:04:15.096Z,54.61
2024-01-09T13:06:44.408Z,53.29
2024-01-09T13:09:13.570Z,54.50
2024-01-09T13:11:42.762Z,53.80
2024-01-09T13:14:11.467Z,54.46
2024-01-09T13:16:39.253Z,55.42
2024-01-09T13:19:08.326Z,54.38
2024-01-09T13:23:37.123Z,54.62
2024-01-09T13:24:24.033Z,54.38
2024-01-09T13:26:51.672Z,54.17
2024-01-09T13:30:46.161Z,54.77
2024-01-09T13:32:08.218Z,56.77
2024-01-09T13:34:36.244Z,56.23
2024-01-09T13:37:04.301Z,57.28
2024-01-09T13:39:32.107Z,57.17
2024-01-09T13:41:59.995Z,57.84
2024-01-09T13:44:28.107Z,57.28
2024-01-09T13:46:57.090Z,57.81
2024-01-09T13:49:25.178Z,59.92
2024-01-09T13:51:55.548Z,58.82
2024-01-09T13:54:26.768Z,59.03
2024-01-09T13:56:55.044Z,59.63
2024-01-09T13:59:23.830Z,61.79
2024-01-09T14:01:52.208Z,58.38
2024-01-09T14:04:20.518Z,58.43
2024-01-09T14:06:48.410Z,58.40
2024-01-09T14:09:16.365Z,58.79
2024-01-09T14:11:44.298Z,58.18
2024-01-09T14:14:12.354Z,59.12
2024-01-09T14:16:40.347Z,59.32
2024-01-09T14:19:10.542Z,57.61
2024-01-09T14:21:38.542Z,57.89
2024-01-09T14:24:06.826Z,58.90
2024-01-09T14:26:34.578Z,59.72
2024-01-09T14:29:02.350Z,60.49
2024-01-09T14:31:31.220Z,60.67
2024-01-09T14:34:00.173Z,60.70
2024-01-09T14:36:27.947Z,60.51
2024-01-09T14:38:55.639Z,58.25
2024-01-09T14:41:23.263Z,59.19
2024-01-09T14:43:52.406Z,58.67
2024-01-09T14:46:20.100Z,60.21
2024-01-09T14:48:48.317Z,61.12
2024-01-09T14:51:16.245Z,60.07
2024-01-09T14:53:43.849Z,60.61
2024-01-09T14:56:11.552Z,60.60
2024-01-09T14:58:39.320Z,61.31
2024-01-09T15:01:07.124Z,62.18
2024-01-09T15:03:34.856Z,63.59
2024-01-09T15:06:02.629Z,63.98
2024-01-09T15:08:30.313Z,64.87
2024-01-09T15:10:58.131Z,66.17
2024-01-09T15:13:26.876Z,65.10
2024-01-09T15:15:54.754Z,66.85
2024-01-09T15:18:22.976Z,68.41
2024-01-09T15:20:50.676Z,66.83
2024-01-09T15:23:18.703Z,67.51
2024-01-09T15:25:46.587Z,67.21
2024-01-09T15:28:18.628Z,68.34
2024-01-09T15:30:46.822Z,69.16
2024-01-09T15:33:14.677Z,70.47
2024-01-09T15:35:44.265Z,71.25
2024-01-09T15:38:12.364Z,69.53
2024-01-09T15:40:40.392Z,69.99
2024-01-09T15:43:08.577Z,70.68
2024-01-09T15:45:36.356Z,70.30
2024-01-09T15:48:06.597Z,70.51
2024-01-09T15:50:34.280Z,69.50
2024-01-09T15:53:05.735Z,69.69
2024-01-09T15:55:34.251Z,70.57
2024-01-09T15:58:04.046Z,71.46
2024-01-09T16:00:32.319Z,75.39
2024-01-09T16:03:01.027Z,75.26
2024-01-09T16:05:29.713Z,73.52
2024-01-09T16:07:57.696Z,74.44
2024-01-09T16:10:31.102Z,74.21
2024-01-09T16:12:59.230Z,74.06
2024-01-09T16:15:26.975Z,75.06
2024-01-09T16:17:54.857Z,75.16
2024-01-09T16:20:24.343Z,74.90
2024-01-09T16:22:52.113Z,73.91
2024-01-09T16:25:19.956Z,74.81
2024-01-09T16:27:47.847Z,74.90
2024-01-09T16:30:15.847Z,75.01
2024-01-09T16:32:43.676Z,76.36
2024-01-09T16:35:11.577Z,75.64
2024-01-09T16:37:39.413Z,77.32
2024-01-09T16:40:10.781Z,77.90
2024-01-09T16:42:39.670Z,75.21
2024-01-09T16:45:09.133Z,75.28
2024-01-09T16:47:37.362Z,76.47
2024-01-09T16:50:05.956Z,77.60
2024-01-09T16:52:35.029Z,77.52
2024-01-09T16:55:02.754Z,77.32
2024-01-09T16:57:30.359Z,78.63
2024-01-09T16:59:58.159Z,79.00
2024-01-09T17:02:26.287Z,79.06
2024-01-09T17:04:54.463Z,79.80
2024-01-09T17:07:22.328Z,80.27
2024-01-09T17:09:49.967Z,80.26
2024-01-09T17:12:17.801Z,78.68
2024-01-09T17:14:45.855Z,77.94
2024-01-09T17:17:13.856Z,78.27
2024-01-09T17:19:41.929Z,77.82
2024-01-09T17:22:10.726Z,79.42
2024-01-09T17:24:38.923Z,79.51
2024-01-09T17:27:06.717Z,78.82
2024-01-09T17:29:34.612Z,78.09
2024-01-09T17:32:02.331Z,77.33
2024-01-09T17:34:30.400Z,77.29
2024-01-09T17:36:58.227Z,77.53
2024-01-09T17:39:26.535Z,76.67
2024-01-09T17:41:55.108Z,76.97
2024-01-09T17:44:22.801Z,76.46
2024-01-09T17:46:50.587Z,77.37
2024-01-09T17:49:18.256Z,77.70
2024-01-09T17:51:46.016Z,77.48
2024-01-09T17:54:13.902Z,77.05
2024-01-09T17:56:41.779Z,77.13
2024-01-09T17:59:10.579Z,78.50
2024-01-09T18:01:45.335Z,78.56
2024-01-09T18:04:18.044Z,78.71
2024-01-09T18:06:48.468Z,78.50
2024-01-09T18:09:23.306Z,78.88
2024-01-09T18:11:55.269Z,79.50
2024-01-09T18:14:23.633Z,79.24
2024-01-09T18:16:51.465Z,79.78
2024-01-09T18:19:19.453Z,80.73
2024-01-09T18:21:47.427Z,81.51
2024-01-09T18:24:15.892Z,80.37
2024-01-09T18:26:53.153Z,80.69
2024-01-09T18:29:23.469Z,80.27
2024-01-09T18:31:55.820Z,78.75
2024-01-09T18:34:24.506Z,79.55
2024-01-09T18:36:52.434Z,79.23
2024-01-09T18:39:20.490Z,79.59
2024-01-09T18:41:49.739Z,80.22
2024-01-09T18:44:17.767Z,80.40
2024-01-09T18:46:46.811Z,80.60
2024-01-09T18:49:14.648Z,80.74
2024-01-09T18:51:42.577Z,81.69
2024-01-09T18:54:12.844Z,82.66
2024-01-09T18:56:41.979Z,81.63
2024-01-09T18:59:11.861Z,81.25
2024-01-09T19:01:43.632Z,81.77
2024-01-09T19:04:11.807Z,81.50
2024-01-09T19:06:39.686Z,82.46
2024-01-09T19:09:13.475Z,81.35
2024-01-09T19:11:41.629Z,81.66
2024-01-09T19:14:13.048Z,82.79
2024-01-09T19:16:46.606Z,82.35
2024-01-09T19:19:17.320Z,81.92
2024-01-09T19:21:46.827Z,80.36
2024-01-09T19:24:17.480Z,79.32
2024-01-09T19:26:46.431Z,77.69
2024-01-09T19:29:18.319Z,77.51
2024-01-09T19:31:46.620Z,75.67
2024-01-09T19:34:14.711Z,73.67
2024-01-09T19:36:47.086Z,72.75
2024-01-09T19:39:15.453Z,71.57
2024-01-09T19:41:43.221Z,71.59
2024-01-09T19:44:11.240Z,72.92
2024-01-09T19:46:42.455Z,72.44
2024-01-09T19:49:11.717Z,71.78
2024-01-09T19:51:42.254Z,72.16
2024-01-09T19:54:13.053Z,71.41
2024-01-09T19:56:41.486Z,70.80
2024-01-09T19:59:09.428Z,71.40
2024-01-09T20:01:37.378Z,71.68
2024-01-09T20:04:05.366Z,72.27
2024-01-09T20:06:33.239Z,71.06
2024-01-09T20:09:01.098Z,72.67
2024-01-09T20:11:29.657Z,74.94
2024-01-09T20:14:00.644Z,76.00
2024-01-09T20:16:30.015Z,77.27
2024-01-09T20:18:58.396Z,76.32
2024-01-09T20:21:31.173Z,76.95
2024-01-09T20:23:59.819Z,77.41
2024-01-09T20:26:29.660Z,78.57
2024-01-09T20:28:58.795Z,78.08
2024-01-09T20:31:31.031Z,78.71
2024-01-09T20:33:59.135Z,78.35
2024-01-09T20:36:26.938Z,77.30
2024-01-09T20:38:55.132Z,77.36
2024-01-09T20:41:22.990Z,78.01
2024-01-09T20:43:50.903Z,80.69
2024-01-09T20:46:18.810Z,79.43
2024-01-09T20:48:46.729Z,80.98
2024-01-09T20:51:14.546Z,80.72
2024-01-09T20:53:43.278Z,81.13
2024-01-09T20:56:11.258Z,79.94
2024-01-09T20:58:39.306Z,78.78
2024-01-09T21:01:07.265Z,81.19
2024-01-09T21:03:35.086Z,79.15
2024-01-09T21:06:02.938Z,82.03
2024-01-09T21:08:30.643Z,80.28
2024-01-09T21:10:58.366Z,80.83
2024-01-09T21:13:26.280Z,80.08
2024-01-09T21:15:54.180Z,81.54
2024-01-09T21:18:21.916Z,81.74
2024-01-09T21:20:49.877Z,79.78
2024-01-09T21:23:26.914Z,79.84
2024-01-09T21:25:59.860Z,79.27
2024-01-09T21:28:27.616Z,79.26
2024-01-09T21:30:55.731Z,77.76
2024-01-09T21:33:25.138Z,77.34
2024-01-09T21:35:53.076Z,76.53
2024-01-09T21:38:21.456Z,75.32
2024-01-09T21:40:57.887Z,74.13
2024-01-09T21:43:26.909Z,75.32
2024-01-09T21:45:54.600Z,76.28
2024-01-09T21:48:22.288Z,76.59
2024-01-09T21:50:50.126Z,77.36
2024-01-09T21:53:18.005Z,77.02
2024-01-09T21:55:45.775Z,76.85
2024-01-09T21:58:14.597Z,76.26
2024-01-09T22:00:42.429Z,75.88
2024-01-09T22:03:11.319Z,74.47
2024-01-09T22:05:39.240Z,74.52
2024-01-09T22:08:07.430Z,74.30
2024-01-09T22:10:35.122Z,74.58
2024-01-09T22:13:03.359Z,74.91
2024-01-09T22:15:33.092Z,73.34
2024-01-09T22:18:00.822Z,72.73
2024-01-09T22:20:28.861Z,72.69
2024-01-09T22:22:56.628Z,72.78
2024-01-09T22:25:24.647Z,72.26
2024-01-09T22:27:52.381Z,71.60
2024-01-09T22:30:20.249Z,71.65
2024-01-09T22:32:48.085Z,71.29
2024-01-09T22:35:16.259Z,71.97
2024-01-09T22:37:44.056Z,71.65
2024-01-09T22:40:12.687Z,71.41
2024-01-09T22:42:40.368Z,71.74
2024-01-09T22:45:08.682Z,71.61
2024-01-09T22:47:36.870Z,72.06
2024-01-09T22:50:05.230Z,72.21
2024-01-09T22:52:33.291Z,73.00
2024-01-09T22:55:01.093Z,72.52
2024-01-09T22:57:28.872Z,73.69
2024-01-09T22:59:56.555Z,73.54
2024-01-09T23:02:24.381Z,73.72
2024-01-09T23:04:52.238Z,73.67
2024-01-09T23:07:20.090Z,74.63
2024-01-09T23:09:47.803Z,74.62
2024-01-09T23:12:15.947Z,75.07
2024-01-09T23:14:43.892Z,75.49
2024-01-09T23:17:11.898Z,77.43
2024-01-09T23:19:40.029Z,78.98
2024-01-09T23:22:07.858Z,78.88
2024-01-09T23:24:35.800Z,77.78
2024-01-09T23:27:03.648Z,77.70
2024-01-09T23:29:31.572Z,77.50
2024-01-09T23:31:59.513Z,77.58
2024-01-09T23:34:27.276Z,76.66
2024-01-09T23:36:55.036Z,76.05
2024-01-09T23:39:22.818Z,76.29
2024-01-09T23:41:50.612Z,76.27
2024-01-09T23:44:18.446Z,75.18
2024-01-09T23:46:46.264Z,75.50
2024-01-09T23:49:14.320Z,75.68
2024-01-09T23:51:42.047Z,76.55
2024-01-09T23:54:09.740Z,78.32
2024-01-09T23:56:37.576Z,79.62
2024-01-09T23:59:05.439Z,78.48
